Time;durP1;ratioP1;P1;durP2;ratioP2;P2;SDS_P1;SDS_P2;PMS_P1;PMS_P2;Temp;Humidity;BMP_temperature;BMP_pressure;BME280_temperature;BME280_humidity;BME280_pressure;Samples;Min_cycle;Max_cycle;Signal;HPM_P1;HPM_P2
2022/05/20 03:06:01;;;;;;;2.00;1.90;;;;;;;17.39;57.22;97475.53;6011587;24;20175;-93
2022/05/20 03:09:30;;;;;;;2.30;2.00;;;;;;;19.57;57.03;97831.31;5988594;24;20151;-94
2022/05/20 03:12:36;;;;;;;1.83;1.73;;;;;;;16.34;57.15;97291.31;5979879;23;20171;-93
2022/05/20 03:15:50;;;;;;;;;;;;;;;;;;;;;
2022/05/20 03:18:57;;;;;;;2.03;1.83;;;;;;;16.18;56.95;97271.16;5999006;24;20155;-94
2022/05/20 03:22:18;;;;;;;2.13;1.93;;;;;;;20.88;57.25;98054.59;5975655;24;20146;-95
2022/05/20 03:27:52;;;;;;;1.70;1.60;;;;;;;17.31;57.14;97457.41;5974456;23;20163;-94
2022/05/20 03:30:34;;;;;;;1.80;1.70;;;;;;;16.71;57.17;97385.22;5979816;24;20151;-94
2022/05/20 03:33:39;;;;;;;1.90;1.80;;;;;;;19.77;57.43;97899.28;5932082;24;20152;-94
2022/05/20 03:37:09;;;;;;;1.90;1.80;;;;;;;20.88;57.21;98058.81;5928814;24;20145;-95
2022/05/20 03:53:19;;;;;;;1.80;1.70;;;;;;;17.70;57.35;97553.22;6125731;23;20198;-95
2022/05/20 03:55:49;;;;;;;2.33;1.90;;;;;;;17.79;57.22;97530.75;6055830;23;20156;-94
2022/05/20 03:58:15;;;;;;;2.00;1.90;;;;;;;15.49;57.12;97137.03;6074214;23;20148;-94
2022/05/20 04:03:47;;;;;;;2.17;1.97;;;;;;;15.90;57.27;97197.19;6080686;23;20149;-93
2022/05/20 04:06:14;;;;;;;1.70;1.60;;;;;;;15.30;56.99;97098.94;6050778;23;20145;-94
2022/05/20 04:08:41;;;;;;;1.67;1.57;;;;;;;18.03;57.40;97576.75;6073996;23;20156;-93
2022/05/20 04:11:11;;;;;;;2.33;1.80;;;;;;;16.88;57.31;97372.53;6050345;23;20145;-93
2022/05/20 04:13:39;;;;;;;1.60;1.50;;;;;;;17.67;57.03;97532.75;6050773;23;20157;-94
2022/05/20 04:16:06;;;;;;;1.63;1.53;;;;;;;17.66;57.57;97518.31;6026914;23;20156;-93
2022/05/20 04:18:33;;;;;;;1.70;1.60;;;;;;;20.42;57.52;98006.66;6027066;23;20156;-94
2022/05/20 04:21:00;;;;;;;2.00;1.90;;;;;;;16.46;57.05;97340.09;6073876;23;20181;-94
2022/05/20 04:23:26;;;;;;;1.80;1.70;;;;;;;14.66;57.18;96988.81;6073728;23;20148;-94
2022/05/20 04:25:53;;;;;;;1.73;1.63;;;;;;;17.81;57.61;97552.03;6050469;23;20141;-94
2022/05/20 04:28:20;;;;;;;2.00;1.90;;;;;;;19.03;57.33;97795.78;6050231;23;20173;-94
2022/05/20 04:30:46;;;;;;;2.10;2.00;;;;;;;17.70;56.85;97534.53;6073677;23;20149;-95
2022/05/20 04:33:13;;;;;;;2.10;1.90;;;;;;;17.40;57.19;97513.69;6050345;23;20148;-94
2022/05/20 04:35:40;;;;;;;1.83;1.67;;;;;;;15.38;57.16;97114.53;6050424;23;20156;-95
2022/05/20 04:38:07;;;;;;;1.90;1.80;;;;;;;17.44;57.39;97476.66;6073862;23;20148;-95
2022/05/20 04:40:34;;;;;;;1.80;1.70;;;;;;;17.83;57.24;97537.69;6027014;23;20145;-95
2022/05/20 04:48:31;;;;;;;1.80;1.70;;;;;;;18.55;57.20;97682.50;6077295;23;20149;-94
2022/05/20 04:51:12;;;;;;;1.80;1.70;;;;;;;17.84;57.32;97547.09;6039787;23;20157;-95
2022/05/20 04:57:41;;;;;;;1.73;1.63;;;;;;;20.94;57.56;98076.97;6021781;23;20202;-94
2022/05/20 05:01:15;;;;;;;1.90;1.80;;;;;;;16.07;57.29;97234.28;6039977;23;20138;-94
2022/05/20 05:06:37;;;;;;;3.40;2.30;;;;;;;18.23;57.63;97630.19;6097185;23;20346;-94
2022/05/20 05:09:18;;;;;;;4.03;1.70;;;;;;;15.22;57.80;97076.63;6073718;23;20212;-94
2022/05/20 05:33:58;;;;;;;3.17;2.13;;;;;;;15.17;58.02;97060.34;6063547;23;20163;-94
2022/05/20 05:44:32;;;;;;;4.10;2.13;;;;;;;19.11;58.15;97791.91;6130086;23;20226;-93
2022/05/20 05:55:17;;;;;;;7.87;2.00;;;;;;;17.96;58.43;97534.91;6095238;23;20183;-93
2022/05/20 05:57:44;;;;;;;3.20;2.30;;;;;;;21.02;58.27;98063.69;6053970;23;20197;-94
2022/05/20 06:00:12;;;;;;;7.93;2.27;;;;;;;18.30;58.02;97628.81;6094161;23;20180;-93
2022/05/20 06:02:38;;;;;;;5.73;2.10;;;;;;;15.17;57.69;97043.50;6046378;23;20156;-94
2022/05/20 06:05:05;;;;;;;7.67;2.23;;;;;;;18.03;58.10;97569.94;6070220;23;20187;-94
2022/05/20 06:07:32;;;;;;;2.63;2.30;;;;;;;18.60;58.04;97675.06;6070401;23;20184;-94
2022/05/20 06:12:35;;;;;;;6.40;2.23;;;;;;;18.51;57.95;97657.75;6123082;23;20222;-92
2022/05/20 06:15:07;;;;;;;3.53;2.10;;;;;;;21.04;58.09;98063.75;6097577;23;20171;-94
2022/05/20 06:17:33;;;;;;;4.97;2.00;;;;;;;19.62;58.08;97837.44;6053314;23;20176;-94
2022/05/20 06:20:01;;;;;;;5.00;2.23;;;;;;;17.19;57.66;97425.50;6070831;23;20176;-94
2022/05/20 06:22:27;;;;;;;7.30;2.60;;;;;;;17.84;58.58;97503.00;6094092;23;20157;-93
2022/05/20 06:24:54;;;;;;;3.97;1.97;;;;;;;17.87;57.99;97548.88;6047342;23;20169;-93
2022/05/20 06:27:21;;;;;;;9.50;2.67;;;;;;;16.95;57.82;97391.41;6070901;23;20188;-95
2022/05/20 06:29:48;;;;;;;4.00;2.20;;;;;;;17.64;57.77;97497.03;6071167;23;20176;-94
2022/05/20 06:32:15;;;;;;;9.80;2.40;;;;;;;18.42;57.99;97603.03;6094692;23;20160;-93
2022/05/20 12:53:52;;;;;;;7.30;2.93;;;;;;;19.41;58.37;97390.56;6109585;23;20231;-94
2022/05/20 16:30:12;;;;;;;4.20;2.63;;;;;;;20.46;58.73;97166.97;6116146;23;20256;-93
2022/05/20 16:32:38;;;;;;;5.23;3.10;;;;;;;19.44;58.87;96991.44;6072387;23;20446;-92
2022/05/20 16:35:06;;;;;;;3.17;2.50;;;;;;;20.19;58.87;97111.78;6095687;23;20195;-93
2022/05/20 16:37:33;;;;;;;6.30;2.80;;;;;;;20.37;58.71;97128.44;6071671;23;20164;-92
2022/05/20 16:40:00;;;;;;;5.23;2.50;;;;;;;20.40;58.50;97125.13;6096092;23;20184;-92
2022/05/20 16:42:27;;;;;;;4.80;3.10;;;;;;;20.37;58.67;97128.44;6071467;23;20159;-92
2022/05/20 16:44:54;;;;;;;3.73;2.70;;;;;;;18.65;59.02;96837.09;6094276;23;20172;-93
2022/05/20 16:47:20;;;;;;;5.23;2.70;;;;;;;19.59;58.81;96993.56;6048460;23;20175;-92
2022/05/20 16:49:47;;;;;;;4.23;2.83;;;;;;;20.69;58.63;97224.66;6070678;23;20156;-92
2022/05/20 16:52:14;;;;;;;3.63;2.43;;;;;;;19.09;58.67;96915.66;6072734;23;20167;-92
2022/05/20 16:54:43;;;;;;;4.70;2.80;;;;;;;21.20;58.78;97271.25;6073588;23;20172;-92
2022/05/20 17:02:40;;;;;;;4.17;2.63;;;;;;;20.80;58.71;97227.50;6081002;23;20164;-93
2022/05/20 17:05:10;;;;;;;4.17;2.70;;;;;;;19.67;58.38;97030.34;6050155;23;20184;-92
2022/05/20 17:07:38;;;;;;;5.33;2.80;;;;;;;18.85;58.28;96899.66;6075244;23;20160;-92
2022/05/20 17:10:05;;;;;;;7.43;2.77;;;;;;;19.76;59.11;97071.41;6049472;23;20180;-92
2022/05/20 17:12:34;;;;;;;6.63;2.60;;;;;;;18.94;58.48;96902.47;6049148;23;20192;-93
2022/05/20 17:15:03;;;;;;;6.60;2.60;;;;;;;19.19;58.60;96937.16;6061620;23;20213;-93
2022/05/20 17:31:45;;;;;;;4.23;2.47;;;;;;;15.73;57.77;96448.34;6099477;23;20204;-89
2022/05/20 17:35:01;;;;;;;10.03;3.93;;;;;;;21.24;57.73;97306.25;6058946;23;20520;-89
